createdAt,value
2023-03-03T00:01:18.475Z,97599.63
2023-03-03T00:03:45.288Z,97593.88
2023-03-03T00:06:14.125Z,97599.97
2023-03-03T00:08:41.140Z,97596.72
2023-03-03T00:11:08.787Z,97591.88
2023-03-03T00:13:46.822Z,97595.91
2023-03-03T00:16:21.413Z,97599.16
2023-03-03T00:18:48.906Z,97584.91
2023-03-03T00:21:22.749Z,97590.00
2023-03-03T00:23:49.632Z,97588.06
2023-03-03T00:26:19.530Z,97591.63
2023-03-03T00:28:48.590Z,97584.34
2023-03-03T00:31:34.819Z,97595.03
2023-03-03T00:34:20.285Z,97598.16
2023-03-03T00:36:48.511Z,97596.78
2023-03-03T00:39:22.252Z,97585.72
2023-03-03T00:41:49.140Z,97594.75
2023-03-03T00:44:40.927Z,97596.69
2023-03-03T00:47:38.559Z,97594.84
2023-03-03T00:50:07.906Z,97591.28
2023-03-03T00:52:46.100Z,97589.81
2023-03-03T00:55:12.671Z,97580.81
2023-03-03T00:57:39.353Z,97591.00
2023-03-03T01:00:06.434Z,97586.72
2023-03-03T01:02:33.159Z,97581.63
2023-03-03T01:04:59.957Z,97572.72
2023-03-03T01:07:26.574Z,97581.63
2023-03-03T01:10:04.528Z,97573.41
2023-03-03T01:12:31.123Z,97572.00
2023-03-03T01:14:57.793Z,97568.88
2023-03-03T01:17:24.474Z,97572.56
2023-03-03T01:19:51.110Z,97570.97
2023-03-03T01:22:17.754Z,97560.78
2023-03-03T01:24:44.340Z,97556.31
2023-03-03T01:27:11.361Z,97559.16
2023-03-03T01:29:37.982Z,97553.59
2023-03-03T01:32:04.696Z,97544.31
2023-03-03T01:34:31.315Z,97548.59
2023-03-03T01:36:57.920Z,97545.34
2023-03-03T01:39:24.478Z,97543.97
2023-03-03T01:41:51.043Z,97555.44
2023-03-03T01:44:18.636Z,97536.94
2023-03-03T01:46:56.031Z,97547.13
2023-03-03T01:49:30.437Z,97540.31
2023-03-03T01:52:00.088Z,97548.63
2023-03-03T01:54:51.237Z,97534.34
2023-03-03T01:57:22.676Z,97543.47
2023-03-03T01:59:51.045Z,97544.91
2023-03-03T02:02:18.443Z,97538.41
2023-03-03T02:04:45.627Z,97541.66
2023-03-03T02:07:15.013Z,97542.47
2023-03-03T02:10:09.286Z,97546.53
2023-03-03T02:12:44.027Z,97535.19
2023-03-03T02:15:20.950Z,97545.25
2023-03-03T02:17:50.031Z,97544.50
2023-03-03T02:20:29.863Z,97519.06
2023-03-03T02:23:13.012Z,97546.72
2023-03-03T02:25:48.061Z,97503.50
2023-03-03T02:28:14.757Z,97513.69
2023-03-03T02:30:41.765Z,97523.28
2023-03-03T02:33:08.732Z,97533.69
2023-03-03T02:35:40.112Z,97539.13
2023-03-03T02:38:15.685Z,97545.81
2023-03-03T02:40:53.645Z,97543.16
2023-03-03T02:43:23.202Z,97521.66
2023-03-03T02:45:49.851Z,97528.03
2023-03-03T02:48:16.472Z,97525.50
2023-03-03T02:50:43.188Z,97526.06
2023-03-03T02:53:09.840Z,97531.28
2023-03-03T02:55:36.413Z,97535.56
2023-03-03T02:58:03.135Z,97510.56
2023-03-03T03:00:29.652Z,97518.63
2023-03-03T03:02:56.229Z,97534.84
2023-03-03T03:05:22.997Z,97497.31
2023-03-03T03:07:49.540Z,97521.56
2023-03-03T03:10:16.201Z,97536.41
2023-03-03T03:12:42.888Z,97532.59
2023-03-03T03:15:10.128Z,97511.09
2023-03-03T03:17:39.644Z,97524.03
2023-03-03T03:20:09.230Z,97539.06
2023-03-03T03:22:35.897Z,97536.88
2023-03-03T03:25:02.684Z,97530.50
2023-03-03T03:27:29.477Z,97524.03
2023-03-03T03:29:56.156Z,97524.16
2023-03-03T03:32:22.905Z,97497.56
2023-03-03T03:34:49.773Z,97501.97
2023-03-03T03:37:16.483Z,97518.13
2023-03-03T03:39:43.152Z,97527.59
2023-03-03T03:42:09.963Z,97515.78
2023-03-03T03:44:36.593Z,97493.50
2023-03-03T03:47:03.204Z,97522.75
2023-03-03T03:49:29.911Z,97501.81
2023-03-03T03:51:56.500Z,97504.38
2023-03-03T03:54:23.165Z,97514.78
2023-03-03T03:56:49.931Z,97505.75
2023-03-03T03:59:16.465Z,97520.53
2023-03-03T04:01:43.366Z,97518.94
2023-03-03T04:04:10.323Z,97522.06
2023-03-03T04:06:36.943Z,97520.78
2023-03-03T04:09:04.637Z,97528.56
2023-03-03T04:11:31.630Z,97527.41
2023-03-03T04:13:58.590Z,97536.41
2023-03-03T04:16:25.216Z,97525.44
2023-03-03T04:18:51.909Z,97541.38
2023-03-03T04:21:18.639Z,97528.91
2023-03-03T04:23:45.260Z,97532.59
2023-03-03T04:26:11.827Z,97534.09
2023-03-03T04:28:38.584Z,97537.56
2023-03-03T04:31:05.409Z,97513.91
2023-03-03T04:33:32.438Z,97530.97
2023-03-03T04:35:59.069Z,97522.91
2023-03-03T04:38:26.354Z,97532.16
2023-03-03T04:40:53.367Z,97538.97
2023-03-03T04:43:20.313Z,97532.50
2023-03-03T04:45:46.964Z,97525.69
2023-03-03T04:48:14.867Z,97514.91
2023-03-03T04:50:42.708Z,97517.00
2023-03-03T04:53:09.411Z,97515.75
2023-03-03T04:55:38.080Z,97511.91
2023-03-03T04:58:05.649Z,97511.81
2023-03-03T05:00:32.609Z,97504.41
2023-03-03T05:03:00.120Z,97508.09
2023-03-03T05:05:27.962Z,97505.09
2023-03-03T05:07:54.601Z,97514.69
2023-03-03T05:10:21.688Z,97529.03
2023-03-03T05:12:48.448Z,97522.06
2023-03-03T05:15:15.212Z,97522.19
2023-03-03T05:17:41.985Z,97530.28
2023-03-03T05:20:10.567Z,97543.69
2023-03-03T05:22:37.169Z,97547.59
2023-03-03T05:25:04.785Z,97536.59
2023-03-03T05:27:39.259Z,97502.25
2023-03-03T05:30:06.630Z,97529.25
2023-03-03T05:32:33.348Z,97546.50
2023-03-03T05:34:59.987Z,97545.66
2023-03-03T05:37:26.819Z,97545.25
2023-03-03T05:39:53.491Z,97547.47
2023-03-03T05:42:20.388Z,97545.38
2023-03-03T05:44:47.021Z,97556.09
2023-03-03T05:47:16.926Z,97553.16
2023-03-03T05:49:44.057Z,97546.41
2023-03-03T05:52:10.717Z,97568.41
2023-03-03T05:54:37.416Z,97555.63
2023-03-03T05:57:04.185Z,97527.25
2023-03-03T05:59:30.711Z,97558.09
2023-03-03T06:01:57.332Z,97488.38
2023-03-03T06:04:24.138Z,97567.88
2023-03-03T06:07:03.875Z,97553.16
2023-03-03T06:09:30.561Z,97561.72
2023-03-03T06:11:57.160Z,97573.94
2023-03-03T06:14:26.069Z,97581.22
2023-03-03T06:16:53.766Z,97580.16
2023-03-03T06:19:24.000Z,97565.69
2023-03-03T06:21:50.652Z,97558.72
2023-03-03T06:24:18.333Z,97574.84
2023-03-03T06:26:45.338Z,97577.66
2023-03-03T06:29:13.183Z,97490.34
2023-03-03T06:31:41.002Z,97537.53
2023-03-03T06:34:08.098Z,97554.16
2023-03-03T06:36:34.729Z,97563.28
2023-03-03T06:39:01.496Z,97551.88
2023-03-03T06:41:28.236Z,97551.22
2023-03-03T06:43:55.005Z,97586.69
2023-03-03T06:46:22.081Z,97569.91
2023-03-03T06:48:48.853Z,97554.75
2023-03-03T06:51:32.729Z,97578.53
2023-03-03T06:54:03.073Z,97573.81
2023-03-03T06:56:37.656Z,97568.09
2023-03-03T06:59:13.028Z,97553.25
2023-03-03T07:01:40.103Z,97559.22
2023-03-03T07:04:29.277Z,97562.53
2023-03-03T07:07:06.043Z,97540.72
2023-03-03T07:09:32.614Z,97544.69
2023-03-03T07:12:11.416Z,97550.91
2023-03-03T07:14:43.504Z,97528.44
2023-03-03T07:17:17.516Z,97530.88
2023-03-03T07:19:45.417Z,97537.13
2023-03-03T07:22:18.694Z,97533.25
2023-03-03T07:24:47.830Z,97561.75
2023-03-03T07:27:20.041Z,97570.06
2023-03-03T07:29:48.625Z,97556.28
2023-03-03T07:32:30.580Z,97572.78
2023-03-03T07:34:57.363Z,97545.59
2023-03-03T07:37:42.683Z,97554.34
2023-03-03T07:40:34.191Z,97567.75
2023-03-03T07:43:17.163Z,97558.66
2023-03-03T07:45:43.853Z,97546.78
2023-03-03T07:48:14.400Z,97562.94
2023-03-03T07:50:41.242Z,97564.88
2023-03-03T07:53:27.073Z,97533.50
2023-03-03T07:55:54.667Z,97550.44
2023-03-03T07:58:38.572Z,97601.69
2023-03-03T08:01:31.896Z,97594.16
2023-03-03T08:03:58.864Z,97589.25
2023-03-03T08:06:44.105Z,97582.84
2023-03-03T08:09:10.742Z,97575.06
2023-03-03T08:12:01.959Z,97567.78
2023-03-03T08:14:32.081Z,97581.22
2023-03-03T08:17:01.350Z,97550.69
2023-03-03T08:19:31.651Z,97577.00
2023-03-03T08:22:13.234Z,97564.69
2023-03-03T08:24:43.766Z,97571.72
2023-03-03T08:27:10.603Z,97542.41
2023-03-03T08:29:37.306Z,97549.19
2023-03-03T08:32:04.261Z,97579.84
2023-03-03T08:34:31.114Z,97574.22
2023-03-03T08:36:58.650Z,97589.25
2023-03-03T08:39:25.240Z,97577.69
2023-03-03T08:41:52.202Z,97600.19
2023-03-03T08:44:20.452Z,97604.50
2023-03-03T08:46:48.096Z,97595.38
2023-03-03T08:49:14.860Z,97611.16
2023-03-03T08:51:41.624Z,97566.00
2023-03-03T08:54:08.586Z,97602.31
2023-03-03T08:56:35.203Z,97560.44
2023-03-03T08:59:03.007Z,97551.06
2023-03-03T09:01:33.437Z,97562.63
2023-03-03T09:04:00.669Z,97574.97
2023-03-03T09:06:28.440Z,97565.81
2023-03-03T09:08:55.437Z,97559.91
2023-03-03T09:11:28.344Z,97579.84
2023-03-03T09:14:10.320Z,97578.50
2023-03-03T09:16:51.637Z,97559.94
2023-03-03T09:19:24.476Z,97584.69
2023-03-03T09:21:55.041Z,97585.75
2023-03-03T09:24:36.123Z,97587.94
2023-03-03T09:27:03.101Z,97571.19
2023-03-03T09:29:36.088Z,97593.72
2023-03-03T09:32:32.529Z,97596.34
2023-03-03T09:35:00.492Z,97579.69
2023-03-03T09:37:34.474Z,97585.03
2023-03-03T09:40:01.199Z,97582.59
2023-03-03T09:42:43.129Z,97593.59
2023-03-03T09:45:12.429Z,97597.94
2023-03-03T09:48:17.985Z,97597.19
2023-03-03T09:51:25.944Z,97603.59
2023-03-03T09:54:37.240Z,97613.69
2023-03-03T09:57:39.197Z,97600.81
2023-03-03T10:00:39.589Z,97597.91
2023-03-03T10:03:33.882Z,97601.94
2023-03-03T10:06:24.966Z,97606.72
2023-03-03T10:08:51.482Z,97588.00
2023-03-03T10:11:21.447Z,97601.16
2023-03-03T10:13:51.057Z,97612.41
2023-03-03T10:16:46.093Z,97611.28
2023-03-03T10:19:38.999Z,97617.13
2023-03-03T10:22:12.203Z,97618.72
2023-03-03T10:25:19.314Z,97633.22
2023-03-03T10:27:58.485Z,97596.44
2023-03-03T10:31:02.539Z,97618.22
2023-03-03T10:33:51.819Z,97599.16
2023-03-03T10:36:30.297Z,97618.28
2023-03-03T10:39:18.455Z,97630.00
2023-03-03T10:42:05.548Z,97637.22
2023-03-03T10:44:44.253Z,97631.03
2023-03-03T10:47:13.699Z,97640.41
2023-03-03T10:49:58.945Z,97642.03
2023-03-03T10:52:50.373Z,97639.38
2023-03-03T10:55:39.490Z,97640.78
2023-03-03T10:58:25.029Z,97645.63
2023-03-03T11:01:19.393Z,97633.34
2023-03-03T11:03:55.210Z,97624.75
2023-03-03T11:06:35.524Z,97623.19
2023-03-03T11:09:14.074Z,97594.44
2023-03-03T11:11:55.931Z,97614.63
2023-03-03T11:14:33.840Z,97619.75
2023-03-03T11:17:05.896Z,97616.03
2023-03-03T11:19:38.744Z,97612.53
2023-03-03T11:22:34.424Z,97613.88
2023-03-03T11:25:13.088Z,97610.69
2023-03-03T11:27:56.409Z,97589.44
2023-03-03T11:30:34.455Z,97611.78
2023-03-03T11:33:05.253Z,97612.28
2023-03-03T11:35:50.706Z,97599.41
2023-03-03T11:38:51.325Z,97607.16
2023-03-03T11:41:17.831Z,97612.59
2023-03-03T11:43:52.881Z,97612.59
2023-03-03T11:46:27.390Z,97591.66
2023-03-03T11:49:06.121Z,97593.28
2023-03-03T11:51:41.910Z,97595.72
2023-03-03T11:54:19.992Z,97600.31
2023-03-03T11:56:48.338Z,97598.44
2023-03-03T11:59:37.442Z,97595.25
2023-03-03T12:02:23.557Z,97578.34
2023-03-03T12:05:00.136Z,97597.16
2023-03-03T12:07:39.654Z,97594.47
2023-03-03T12:10:14.796Z,97590.69
2023-03-03T12:13:00.121Z,97582.38
2023-03-03T12:15:47.905Z,97591.25
2023-03-03T12:18:32.742Z,97597.69
2023-03-03T12:21:26.046Z,97595.00
2023-03-03T12:24:47.217Z,97584.78
2023-03-03T12:27:16.371Z,97593.41
2023-03-03T12:30:07.394Z,97555.28
2023-03-03T12:32:36.760Z,97582.63
2023-03-03T12:35:03.368Z,97579.97
2023-03-03T12:38:00.346Z,97580.50
2023-03-03T12:40:33.863Z,97572.44
2023-03-03T12:43:29.413Z,97578.63
2023-03-03T12:46:28.476Z,97574.06
2023-03-03T12:48:55.568Z,97558.22
2023-03-03T12:51:46.220Z,97568.16
2023-03-03T12:54:45.452Z,97558.47
2023-03-03T12:58:09.362Z,97560.09
2023-03-03T13:01:02.862Z,97548.28
2023-03-03T13:03:55.432Z,97558.75
2023-03-03T13:06:40.212Z,97555.28
2023-03-03T13:09:20.729Z,97550.69
2023-03-03T13:12:16.314Z,97555.78
2023-03-03T13:14:50.161Z,97566.50
2023-03-03T13:17:29.317Z,97561.69
2023-03-03T13:20:01.955Z,97532.44
2023-03-03T13:22:28.403Z,97569.75
2023-03-03T13:25:21.481Z,97560.84
2023-03-03T13:27:52.350Z,97571.81
2023-03-03T13:30:34.151Z,97563.75
2023-03-03T13:33:14.817Z,97560.31
2023-03-03T13:35:46.797Z,97574.56
2023-03-03T13:38:20.911Z,97556.88
2023-03-03T13:41:13.156Z,97555.28
2023-03-03T13:44:01.182Z,97567.34
2023-03-03T13:46:40.200Z,97567.88
2023-03-03T13:49:40.620Z,97568.69
2023-03-03T13:52:13.573Z,97566.81
2023-03-03T13:54:51.566Z,97567.59
2023-03-03T13:57:36.675Z,97556.59
2023-03-03T14:00:29.444Z,97560.09
2023-03-03T14:03:15.531Z,97558.75
2023-03-03T14:05:46.122Z,97553.66
2023-03-03T14:08:22.446Z,97556.09
2023-03-03T14:11:16.577Z,97560.09
2023-03-03T14:14:20.817Z,97551.78
2023-03-03T14:16:52.173Z,97548.81
2023-03-03T14:19:28.723Z,97549.34
2023-03-03T14:22:15.319Z,97552.84
2023-03-03T14:25:13.149Z,97555.78
2023-03-03T14:27:48.831Z,97554.47
2023-03-03T14:30:44.322Z,97538.63
2023-03-03T14:33:11.031Z,97551.50
2023-03-03T14:35:41.143Z,97548.28
2023-03-03T14:38:19.427Z,97550.41
2023-03-03T14:40:48.042Z,97545.03
2023-03-03T14:43:33.096Z,97550.94
2023-03-03T14:46:23.180Z,97549.06
2023-03-03T14:48:51.653Z,97552.56
2023-03-03T14:51:54.095Z,97541.81
2023-03-03T14:54:30.547Z,97544.75
2023-03-03T14:57:46.106Z,97539.41
2023-03-03T15:00:13.398Z,97550.91
2023-03-03T15:02:44.586Z,97538.31
2023-03-03T15:05:28.373Z,97547.19
2023-03-03T15:08:04.161Z,97541.81
2023-03-03T15:10:40.042Z,97538.03
2023-03-03T15:13:21.960Z,97530.50
2023-03-03T15:16:16.687Z,97526.50
2023-03-03T15:19:13.747Z,97517.38
2023-03-03T15:21:55.895Z,97521.94
2023-03-03T15:24:36.158Z,97539.34
2023-03-03T15:27:19.649Z,97530.19
2023-03-03T15:29:49.159Z,97538.81
2023-03-03T15:32:31.079Z,97529.13
2023-03-03T15:35:04.212Z,97525.66
2023-03-03T15:37:47.406Z,97529.94
2023-03-03T15:40:19.794Z,97537.44
2023-03-03T15:43:28.383Z,97540.41
2023-03-03T15:46:19.628Z,97544.19
2023-03-03T15:48:52.764Z,97532.63
2023-03-03T15:52:02.184Z,97526.19
2023-03-03T15:54:44.823Z,97532.59
2023-03-03T15:57:41.792Z,97537.41
2023-03-03T16:00:36.919Z,97533.09
2023-03-03T16:03:15.331Z,97538.72
2023-03-03T16:06:01.476Z,97526.88
2023-03-03T16:08:41.965Z,97544.88
2023-03-03T16:11:18.135Z,97538.97
2023-03-03T16:14:04.973Z,97516.91
2023-03-03T16:16:34.512Z,97547.75
2023-03-03T16:19:31.688Z,97545.91
2023-03-03T16:22:39.554Z,97544.31
2023-03-03T16:25:42.914Z,97544.63
2023-03-03T16:28:18.982Z,97551.31
2023-03-03T16:31:24.742Z,97550.50
2023-03-03T16:34:23.613Z,97552.38
2023-03-03T16:37:08.874Z,97552.63
2023-03-03T16:39:56.941Z,97560.38
2023-03-03T16:42:32.601Z,97547.22
2023-03-03T16:45:38.326Z,97560.88
2023-03-03T16:48:22.892Z,97560.63
2023-03-03T16:51:19.615Z,97563.56
2023-03-03T16:54:15.496Z,97559.28
2023-03-03T16:57:21.206Z,97553.34
2023-03-03T17:00:12.396Z,97565.38
2023-03-03T17:03:04.147Z,97560.03
2023-03-03T17:05:45.771Z,97550.88
2023-03-03T17:08:26.951Z,97552.22
2023-03-03T17:11:18.201Z,97548.75
2023-03-03T17:14:11.916Z,97561.06
2023-03-03T17:16:54.369Z,97553.84
2023-03-03T17:19:41.778Z,97557.63
2023-03-03T17:22:14.683Z,97562.16
2023-03-03T17:25:18.561Z,97569.13
2023-03-03T17:28:15.850Z,97568.84
2023-03-03T17:30:57.297Z,97575.81
2023-03-03T17:33:26.924Z,97570.75
2023-03-03T17:36:18.376Z,97569.44
2023-03-03T17:39:03.758Z,97568.06
2023-03-03T17:41:36.143Z,97573.09
2023-03-03T17:44:14.821Z,97565.34
2023-03-03T17:46:58.193Z,97539.53
2023-03-03T17:49:33.625Z,97564.50
2023-03-03T17:52:12.651Z,97540.78
2023-03-03T17:54:54.366Z,97571.72
2023-03-03T17:57:29.799Z,97569.81
2023-03-03T18:00:30.459Z,97575.97
2023-03-03T18:03:19.795Z,97578.34
2023-03-03T18:06:18.296Z,97584.00
2023-03-03T18:09:08.226Z,97589.34
2023-03-03T18:11:50.337Z,97538.59
2023-03-03T18:14:32.206Z,97572.19
2023-03-03T18:17:34.566Z,97582.41
2023-03-03T18:20:12.901Z,97556.94
2023-03-03T18:22:51.410Z,97562.81
2023-03-03T18:25:24.780Z,97568.44
2023-03-03T18:28:00.458Z,97565.50
2023-03-03T18:30:35.359Z,97570.38
2023-03-03T18:33:13.600Z,97550.81
2023-03-03T18:35:46.051Z,97562.59
2023-03-03T18:38:15.420Z,97562.34
2023-03-03T18:41:01.340Z,97573.56
2023-03-03T18:43:43.375Z,97563.38
2023-03-03T18:46:24.966Z,97554.75
2023-03-03T18:49:04.946Z,97550.97
2023-03-03T18:51:34.357Z,97550.44
2023-03-03T18:54:22.543Z,97525.16
2023-03-03T18:56:59.987Z,97544.59
2023-03-03T18:59:36.065Z,97549.69
2023-03-03T19:02:09.019Z,97544.06
2023-03-03T19:04:37.609Z,97543.78
2023-03-03T19:07:15.959Z,97548.03
2023-03-03T19:09:57.264Z,97542.72
2023-03-03T19:13:02.473Z,97546.75
2023-03-03T19:15:32.045Z,97547.28
2023-03-03T19:18:05.734Z,97530.56
2023-03-03T19:20:40.774Z,97546.13
2023-03-03T19:23:14.843Z,97554.44
2023-03-03T19:25:42.368Z,97552.59
2023-03-03T19:28:15.122Z,97548.56
2023-03-03T19:31:01.612Z,97535.88
2023-03-03T19:34:08.636Z,97520.03
2023-03-03T19:36:57.847Z,97549.53
2023-03-03T19:40:00.981Z,97557.91
2023-03-03T19:42:55.592Z,97559.19
2023-03-03T19:45:40.988Z,97549.81
2023-03-03T19:48:36.128Z,97554.91
2023-03-03T19:51:25.668Z,97541.19
2023-03-03T19:54:26.453Z,97554.09
2023-03-03T19:56:55.961Z,97551.16
2023-03-03T19:59:33.797Z,97536.09
2023-03-03T20:02:06.896Z,97535.81
2023-03-03T20:04:58.401Z,97540.97
2023-03-03T20:07:40.014Z,97537.50
2023-03-03T20:10:15.758Z,97540.44
2023-03-03T20:13:02.555Z,97535.09
2023-03-03T20:16:06.869Z,97539.03
2023-03-03T20:18:59.053Z,97538.72
2023-03-03T20:21:33.175Z,97540.06
2023-03-03T20:24:05.608Z,97534.16
2023-03-03T20:26:53.977Z,97541.63
2023-03-03T20:29:29.374Z,97534.09
2023-03-03T20:32:57.870Z,97520.59
2023-03-03T20:35:40.053Z,97537.34
2023-03-03T20:38:20.135Z,97539.50
2023-03-03T20:41:14.726Z,97540.31
2023-03-03T20:44:02.806Z,97535.47
2023-03-03T20:46:46.335Z,97527.13
2023-03-03T20:49:37.828Z,97529.56
2023-03-03T20:52:18.056Z,97525.84
2023-03-03T20:54:59.858Z,97521.81
2023-03-03T20:57:53.682Z,97510.00
2023-03-03T21:00:44.094Z,97523.09
2023-03-03T21:03:35.019Z,97522.34
2023-03-03T21:06:04.969Z,97517.25
2023-03-03T21:08:56.996Z,97515.09
2023-03-03T21:11:33.707Z,97519.66
2023-03-03T21:14:14.273Z,97497.84
2023-03-03T21:16:42.330Z,97502.44
2023-03-03T21:19:25.304Z,97492.53
2023-03-03T21:21:52.611Z,97503.88
2023-03-03T21:24:20.144Z,97495.06
2023-03-03T21:26:49.549Z,97482.91
2023-03-03T21:29:35.475Z,97489.16
2023-03-03T21:32:07.768Z,97490.19
2023-03-03T21:34:42.014Z,97484.00
2023-03-03T21:37:15.477Z,97480.75
2023-03-03T21:39:44.797Z,97483.97
2023-03-03T21:42:40.253Z,97473.50
2023-03-03T21:45:15.436Z,97482.63
2023-03-03T21:47:42.194Z,97460.06
2023-03-03T21:50:11.501Z,97472.72
2023-03-03T21:52:38.213Z,97473.50
2023-03-03T21:55:05.629Z,97453.66
2023-03-03T21:57:32.295Z,97459.00
2023-03-03T21:59:58.947Z,97433.25
2023-03-03T22:02:25.717Z,97452.59
2023-03-03T22:04:52.359Z,97445.34
2023-03-03T22:07:19.007Z,97447.78
2023-03-03T22:09:45.707Z,97446.44
2023-03-03T22:12:12.360Z,97427.97
2023-03-03T22:14:38.975Z,97432.97
2023-03-03T22:17:05.926Z,97437.56
2023-03-03T22:19:34.372Z,97438.59
2023-03-03T22:22:00.946Z,97427.63
2023-03-03T22:24:27.884Z,97422.31
2023-03-03T22:26:54.479Z,97421.00
2023-03-03T22:29:23.132Z,97413.47
2023-03-03T22:31:50.756Z,97419.59
2023-03-03T22:36:44.294Z,97404.88
2023-03-03T22:39:10.954Z,97398.22
2023-03-03T22:41:37.602Z,97400.84
2023-03-03T22:44:04.275Z,97397.09
2023-03-03T22:46:30.851Z,97400.91
2023-03-03T22:48:57.496Z,97407.84
2023-03-03T22:51:24.163Z,97419.66
2023-03-03T22:53:50.877Z,97397.75
2023-03-03T22:56:17.933Z,97398.81
2023-03-03T22:58:44.531Z,97383.53
2023-03-03T23:01:11.241Z,97381.38
2023-03-03T23:03:37.963Z,97371.19
2023-03-03T23:06:04.990Z,97385.88
2023-03-03T23:08:31.563Z,97377.84
2023-03-03T23:10:58.139Z,97386.16
2023-03-03T23:13:27.072Z,97384.56
2023-03-03T23:16:00.361Z,97368.97
2023-03-03T23:18:28.414Z,97368.97
2023-03-03T23:20:55.630Z,97355.31
2023-03-03T23:23:22.592Z,97371.19
2023-03-03T23:25:49.306Z,97384.59
2023-03-03T23:28:16.624Z,97367.16
2023-03-03T23:30:43.307Z,97375.47
2023-03-03T23:33:09.891Z,97369.63
2023-03-03T23:35:36.874Z,97362.66
2023-03-03T23:38:03.507Z,97376.34
2023-03-03T23:40:30.134Z,97352.72
2023-03-03T23:42:56.865Z,97343.59
2023-03-03T23:45:23.527Z,97348.44
2023-03-03T23:47:50.152Z,97363.97
2023-03-03T23:50:16.851Z,97337.19
2023-03-03T23:52:43.410Z,97349.84
2023-03-03T23:55:10.321Z,97332.91
2023-03-03T23:57:37.304Z,97323.53
